createdAt,value
2023-04-03T00:01:39.668Z,99.90
2023-04-03T00:04:10.065Z,99.90
2023-04-03T00:06:42.760Z,99.90
2023-04-03T00:09:12.820Z,99.90
2023-04-03T00:11:43.047Z,99.90
2023-04-03T00:14:13.052Z,99.90
2023-04-03T00:16:43.401Z,99.90
2023-04-03T00:19:14.184Z,99.90
2023-04-03T00:21:46.810Z,99.90
2023-04-03T00:24:16.980Z,99.90
2023-04-03T00:26:47.274Z,99.90
2023-04-03T00:29:17.594Z,99.90
2023-04-03T00:31:47.619Z,99.90
2023-04-03T00:34:18.179Z,99.90
2023-04-03T00:36:50.907Z,99.90
2023-04-03T00:39:21.365Z,99.90
2023-04-03T00:41:51.576Z,99.90
2023-04-03T00:44:24.356Z,99.90
2023-04-03T00:46:54.523Z,99.90
2023-04-03T00:49:25.275Z,99.90
2023-04-03T00:51:59.113Z,99.90
2023-04-03T00:54:30.137Z,99.90
2023-04-03T00:57:01.659Z,99.90
2023-04-03T00:59:36.181Z,99.90
2023-04-03T01:02:06.530Z,99.90
2023-04-03T01:04:38.307Z,99.90
2023-04-03T01:07:13.931Z,99.90
2023-04-03T01:09:45.141Z,99.90
2023-04-03T01:12:19.693Z,99.90
2023-04-03T01:14:54.270Z,99.90
2023-04-03T01:17:33.419Z,99.90
2023-04-03T01:20:32.524Z,99.90
2023-04-03T01:23:24.298Z,99.90
2023-04-03T01:25:56.996Z,99.90
2023-04-03T01:28:29.628Z,99.90
2023-04-03T01:31:07.878Z,99.90
2023-04-03T01:33:42.257Z,99.90
2023-04-03T01:36:13.457Z,99.90
2023-04-03T01:38:43.844Z,99.90
2023-04-03T01:41:13.991Z,99.90
2023-04-03T01:43:45.008Z,99.90
2023-04-03T01:46:15.182Z,99.90
2023-04-03T01:48:48.065Z,99.90
2023-04-03T01:51:18.586Z,99.90
2023-04-03T01:53:48.694Z,99.90
2023-04-03T01:56:18.582Z,99.90
2023-04-03T01:58:49.281Z,99.90
2023-04-03T02:01:20.169Z,99.90
2023-04-03T02:03:52.896Z,99.90
2023-04-03T02:06:23.279Z,99.90
2023-04-03T02:08:53.516Z,99.90
2023-04-03T02:11:23.661Z,99.90
2023-04-03T02:13:53.563Z,99.90
2023-04-03T02:16:23.894Z,99.90
2023-04-03T02:18:56.947Z,99.90
2023-04-03T02:21:27.295Z,99.90
2023-04-03T02:23:58.497Z,99.90
2023-04-03T02:26:28.952Z,99.90
2023-04-03T02:28:59.154Z,99.90
2023-04-03T02:31:29.799Z,99.90
2023-04-03T02:34:03.408Z,99.90
2023-04-03T02:36:33.494Z,99.90
2023-04-03T02:39:07.504Z,99.90
2023-04-03T02:41:39.224Z,99.90
2023-04-03T02:44:16.446Z,99.90
2023-04-03T02:46:46.567Z,99.90
2023-04-03T02:49:19.897Z,99.90
2023-04-03T02:51:49.905Z,99.90
2023-04-03T02:54:20.036Z,99.90
2023-04-03T02:56:55.537Z,99.90
2023-04-03T02:59:26.025Z,99.90
2023-04-03T03:01:57.032Z,99.90
2023-04-03T03:04:30.015Z,99.90
2023-04-03T03:07:01.173Z,99.90
2023-04-03T03:09:33.082Z,99.90
2023-04-03T03:12:03.580Z,99.90
2023-04-03T03:14:33.700Z,99.90
2023-04-03T03:17:04.099Z,99.90
2023-04-03T03:19:36.825Z,99.90
2023-04-03T03:22:07.560Z,99.90
2023-04-03T03:24:38.212Z,99.90
2023-04-03T03:27:08.845Z,99.90
2023-04-03T03:29:38.995Z,99.90
2023-04-03T03:32:09.923Z,99.90
2023-04-03T03:34:42.981Z,99.90
2023-04-03T03:37:12.920Z,99.90
2023-04-03T03:39:43.502Z,99.90
2023-04-03T03:42:13.590Z,99.90
2023-04-03T03:44:43.884Z,99.90
2023-04-03T03:47:14.454Z,99.90
2023-04-03T03:49:47.539Z,99.90
2023-04-03T03:52:18.210Z,99.90
2023-04-03T03:54:48.359Z,99.90
2023-04-03T03:57:20.065Z,99.90
2023-04-03T03:59:51.533Z,99.90
2023-04-03T04:02:22.804Z,99.90
2023-04-03T04:04:55.686Z,99.90
2023-04-03T04:07:29.508Z,99.90
2023-04-03T04:10:00.686Z,99.90
2023-04-03T04:12:30.794Z,99.90
2023-04-03T04:15:01.339Z,99.90
2023-04-03T04:17:32.736Z,99.90
2023-04-03T04:20:06.443Z,99.90
2023-04-03T04:22:37.422Z,99.90
2023-04-03T04:25:09.278Z,99.90
2023-04-03T04:27:41.167Z,99.90
2023-04-03T04:30:13.963Z,99.90
2023-04-03T04:32:44.822Z,99.90
2023-04-03T04:35:18.386Z,99.90
2023-04-03T04:37:51.762Z,99.90
2023-04-03T04:40:22.430Z,99.90
2023-04-03T04:42:53.046Z,99.90
2023-04-03T04:45:23.506Z,99.90
2023-04-03T04:47:54.436Z,99.90
2023-04-03T04:50:27.490Z,99.90
2023-04-03T04:52:58.934Z,99.90
2023-04-03T04:55:29.019Z,99.90
2023-04-03T04:57:59.967Z,99.90
2023-04-03T05:00:33.300Z,99.90
2023-04-03T05:03:03.615Z,99.90
2023-04-03T05:05:46.794Z,99.90
2023-04-03T05:08:17.509Z,99.90
2023-04-03T05:10:49.756Z,99.90
2023-04-03T05:13:21.284Z,99.90
2023-04-03T05:15:51.571Z,99.90
2023-04-03T05:18:22.051Z,99.90
2023-04-03T05:20:55.551Z,99.90
2023-04-03T05:23:28.114Z,99.90
2023-04-03T05:26:00.060Z,99.90
2023-04-03T05:28:31.283Z,99.90
2023-04-03T05:31:02.866Z,99.90
2023-04-03T05:33:37.878Z,99.90
2023-04-03T05:36:14.337Z,99.90
2023-04-03T05:38:49.264Z,99.90
2023-04-03T05:41:19.761Z,99.90
2023-04-03T05:43:50.752Z,99.90
2023-04-03T05:46:23.425Z,99.90
2023-04-03T05:48:57.688Z,99.90
2023-04-03T05:51:38.484Z,99.90
2023-04-03T05:54:20.598Z,99.90
2023-04-03T05:56:51.321Z,99.90
2023-04-03T05:59:22.772Z,99.90
2023-04-03T06:01:57.665Z,99.90
2023-04-03T06:04:28.663Z,99.90
2023-04-03T06:07:02.094Z,99.90
2023-04-03T06:09:33.191Z,99.90
2023-04-03T06:12:03.662Z,99.90
2023-04-03T06:14:34.497Z,99.90
2023-04-03T06:17:05.679Z,99.90
2023-04-03T06:19:36.401Z,99.90
2023-04-03T06:22:08.959Z,99.90
2023-04-03T06:24:39.053Z,99.90
2023-04-03T06:27:09.353Z,99.90
2023-04-03T06:29:39.439Z,99.90
2023-04-03T06:32:10.379Z,99.90
2023-04-03T06:34:41.214Z,99.90
2023-04-03T06:37:15.045Z,99.90
2023-04-03T06:39:45.446Z,99.90
2023-04-03T06:42:16.291Z,99.90
2023-04-03T06:44:57.026Z,99.90
2023-04-03T06:47:27.448Z,99.90
2023-04-03T06:49:58.929Z,99.90
2023-04-03T06:52:31.953Z,99.90
2023-04-03T06:55:02.170Z,99.90
2023-04-03T06:57:32.772Z,99.90
2023-04-03T07:00:03.465Z,99.90
2023-04-03T07:02:33.527Z,99.90
2023-04-03T07:05:03.860Z,99.90
2023-04-03T07:07:37.059Z,99.90
2023-04-03T07:10:08.879Z,99.90
2023-04-03T07:12:39.305Z,99.90
2023-04-03T07:15:11.297Z,99.90
2023-04-03T07:17:41.429Z,99.90
2023-04-03T07:20:13.526Z,99.90
2023-04-03T07:22:46.319Z,99.90
2023-04-03T07:25:16.388Z,99.90
2023-04-03T07:27:46.473Z,99.90
2023-04-03T07:30:17.894Z,99.90
2023-04-03T07:32:47.882Z,99.90
2023-04-03T07:35:19.642Z,99.90
2023-04-03T07:37:52.249Z,99.90
2023-04-03T07:40:22.602Z,99.90
2023-04-03T07:42:53.689Z,99.90
2023-04-03T07:45:24.073Z,99.90
2023-04-03T07:47:54.217Z,99.90
2023-04-03T07:50:26.377Z,99.90
2023-04-03T07:52:59.092Z,99.90
2023-04-03T07:55:29.186Z,99.90
2023-04-03T07:57:59.582Z,99.90
2023-04-03T08:00:29.701Z,99.90
2023-04-03T08:02:59.910Z,99.90
2023-04-03T08:05:30.497Z,99.90
2023-04-03T08:08:03.095Z,99.90
2023-04-03T08:10:34.540Z,99.80
2023-04-03T08:13:05.065Z,99.80
2023-04-03T08:15:35.650Z,99.90
2023-04-03T08:18:06.978Z,99.90
2023-04-03T08:20:37.610Z,99.90
2023-04-03T08:23:10.651Z,99.90
2023-04-03T08:25:42.060Z,99.90
2023-04-03T08:28:12.713Z,99.90
2023-04-03T08:30:43.683Z,99.90
2023-04-03T08:33:14.833Z,99.90
2023-04-03T08:35:45.402Z,99.90
2023-04-03T08:38:18.263Z,99.90
2023-04-03T08:40:48.660Z,99.90
2023-04-03T08:43:35.752Z,98.30
2023-04-03T08:46:09.260Z,98.20
2023-04-03T08:48:44.923Z,97.80
2023-04-03T08:51:19.604Z,97.50
2023-04-03T08:54:00.402Z,97.40
2023-04-03T08:56:30.814Z,97.60
2023-04-03T08:59:04.032Z,97.50
2023-04-03T09:01:39.634Z,97.80
2023-04-03T09:04:17.458Z,97.90
2023-04-03T09:06:53.122Z,97.80
2023-04-03T09:09:36.327Z,97.60
2023-04-03T09:12:25.053Z,97.90
2023-04-03T09:15:07.078Z,97.90
2023-04-03T09:17:52.542Z,98.00
2023-04-03T09:20:28.738Z,98.00
2023-04-03T09:22:58.811Z,97.00
2023-04-03T09:25:38.164Z,96.20
2023-04-03T09:28:12.869Z,96.50
2023-04-03T09:30:43.208Z,96.50
2023-04-03T09:33:15.090Z,96.60
2023-04-03T09:35:48.470Z,95.40
2023-04-03T09:38:22.398Z,94.60
2023-04-03T09:41:09.956Z,95.30
2023-04-03T09:43:42.769Z,95.30
2023-04-03T09:46:30.219Z,95.70
2023-04-03T09:49:09.570Z,96.60
2023-04-03T09:51:42.053Z,96.10
2023-04-03T09:54:38.657Z,96.00
2023-04-03T09:57:15.671Z,95.00
2023-04-03T09:59:51.239Z,94.00
2023-04-03T10:02:36.648Z,93.80
2023-04-03T10:05:09.905Z,95.30
2023-04-03T10:07:44.683Z,95.10
2023-04-03T10:10:26.743Z,95.20
2023-04-03T10:13:14.336Z,95.70
2023-04-03T10:15:55.237Z,95.60
2023-04-03T10:18:36.515Z,95.80
2023-04-03T10:21:21.058Z,96.70
2023-04-03T10:24:05.457Z,96.80
2023-04-03T10:26:45.280Z,95.60
2023-04-03T10:29:31.709Z,96.30
2023-04-03T10:32:15.294Z,97.00
2023-04-03T10:35:02.332Z,97.00
2023-04-03T10:37:46.240Z,96.40
2023-04-03T10:40:28.140Z,96.70
2023-04-03T10:43:06.642Z,96.20
2023-04-03T10:45:53.149Z,95.50
2023-04-03T10:48:38.658Z,95.90
2023-04-03T10:51:20.141Z,96.50
2023-04-03T10:53:56.701Z,96.20
2023-04-03T10:56:34.905Z,95.90
2023-04-03T10:59:12.290Z,97.60
2023-04-03T11:01:48.307Z,96.40
2023-04-03T11:04:22.814Z,96.20
2023-04-03T11:06:57.603Z,95.70
2023-04-03T11:09:32.466Z,95.60
2023-04-03T11:12:08.444Z,95.10
2023-04-03T11:14:40.105Z,94.90
2023-04-03T11:17:23.915Z,95.40
2023-04-03T11:20:04.147Z,94.90
2023-04-03T11:22:38.983Z,94.80
2023-04-03T11:25:21.145Z,94.90
2023-04-03T11:27:54.848Z,96.60
2023-04-03T11:30:28.910Z,93.90
2023-04-03T11:33:21.030Z,94.50
2023-04-03T11:35:55.863Z,93.30
2023-04-03T11:38:36.023Z,93.40
2023-04-03T11:41:09.096Z,91.70
2023-04-03T11:43:46.107Z,92.40
2023-04-03T11:46:17.590Z,91.50
2023-04-03T11:48:56.874Z,92.90
2023-04-03T11:51:50.973Z,92.50
2023-04-03T11:54:44.855Z,92.80
2023-04-03T11:57:49.167Z,92.40
2023-04-03T12:00:51.104Z,92.60
2023-04-03T12:03:59.171Z,92.90
2023-04-03T12:07:16.397Z,93.10
2023-04-03T12:10:31.603Z,93.60
2023-04-03T12:13:05.239Z,92.90
2023-04-03T12:15:58.351Z,91.80
2023-04-03T12:19:04.476Z,92.40
2023-04-03T12:22:05.250Z,90.40
2023-04-03T12:24:40.738Z,90.40
2023-04-03T12:27:38.174Z,90.20
2023-04-03T12:30:19.666Z,89.20
2023-04-03T12:33:11.976Z,91.20
2023-04-03T12:35:53.472Z,89.40
2023-04-03T12:38:46.107Z,90.40
2023-04-03T12:41:27.866Z,88.10
2023-04-03T12:44:13.406Z,91.10
2023-04-03T12:46:48.032Z,89.10
2023-04-03T12:49:39.252Z,86.70
2023-04-03T12:52:21.019Z,90.00
2023-04-03T12:54:52.736Z,85.50
2023-04-03T12:57:28.907Z,86.10
2023-04-03T12:59:59.693Z,83.50
2023-04-03T13:02:32.601Z,83.20
2023-04-03T13:05:09.160Z,86.10
2023-04-03T13:07:43.392Z,87.10
2023-04-03T13:10:19.798Z,81.50
2023-04-03T13:12:54.817Z,81.30
2023-04-03T13:15:26.988Z,82.60
2023-04-03T13:17:58.987Z,84.00
2023-04-03T13:20:31.974Z,87.10
2023-04-03T13:23:06.009Z,89.10
2023-04-03T13:25:39.309Z,90.10
2023-04-03T13:28:16.941Z,89.60
2023-04-03T13:31:00.289Z,89.70
2023-04-03T13:33:34.210Z,86.10
2023-04-03T13:36:08.926Z,83.40
2023-04-03T13:38:39.240Z,86.10
2023-04-03T13:41:27.646Z,84.70
2023-04-03T13:44:10.295Z,83.90
2023-04-03T13:46:42.547Z,83.40
2023-04-03T13:49:24.614Z,83.50
2023-04-03T13:52:06.642Z,84.20
2023-04-03T13:54:39.881Z,84.40
2023-04-03T13:57:18.063Z,85.80
2023-04-03T13:59:51.164Z,82.70
2023-04-03T14:02:25.387Z,83.70
2023-04-03T14:04:59.654Z,84.60
2023-04-03T14:07:30.709Z,82.20
2023-04-03T14:10:01.616Z,84.30
2023-04-03T14:12:35.096Z,85.50
2023-04-03T14:15:16.518Z,82.90
2023-04-03T14:17:47.250Z,86.40
2023-04-03T14:20:19.833Z,86.10
2023-04-03T14:22:49.964Z,81.90
2023-04-03T14:25:20.443Z,84.90
2023-04-03T14:27:52.940Z,83.60
2023-04-03T14:30:27.903Z,88.50
2023-04-03T14:32:58.995Z,85.70
2023-04-03T14:35:30.192Z,82.90
2023-04-03T14:38:00.248Z,81.10
2023-04-03T14:40:31.475Z,78.30
2023-04-03T14:43:01.942Z,79.30
2023-04-03T14:45:34.601Z,82.20
2023-04-03T14:48:04.936Z,85.50
2023-04-03T14:50:35.137Z,89.80
2023-04-03T14:53:05.981Z,87.30
2023-04-03T14:55:39.651Z,85.70
2023-04-03T14:58:09.879Z,86.20
2023-04-03T15:00:43.174Z,85.40
2023-04-03T15:03:17.731Z,85.70
2023-04-03T15:05:49.061Z,86.50
2023-04-03T15:08:25.576Z,86.80
2023-04-03T15:10:56.962Z,84.60
2023-04-03T15:13:27.850Z,85.00
2023-04-03T15:16:01.820Z,86.10
2023-04-03T15:18:39.379Z,86.10
2023-04-03T15:21:09.723Z,85.30
2023-04-03T15:23:39.901Z,89.10
2023-04-03T15:26:10.507Z,86.40
2023-04-03T15:28:43.679Z,86.70
2023-04-03T15:31:16.636Z,88.90
2023-04-03T15:33:46.747Z,88.00
2023-04-03T15:36:32.824Z,89.90
2023-04-03T15:39:04.510Z,87.70
2023-04-03T15:41:34.961Z,89.30
2023-04-03T15:44:05.004Z,87.70
2023-04-03T15:46:37.839Z,86.60
2023-04-03T15:49:08.255Z,83.70
2023-04-03T15:51:39.549Z,81.80
2023-04-03T15:54:09.808Z,81.20
2023-04-03T15:56:40.015Z,82.10
2023-04-03T15:59:10.584Z,81.20
2023-04-03T16:01:44.362Z,82.20
2023-04-03T16:04:15.825Z,82.10
2023-04-03T16:06:46.637Z,82.00
2023-04-03T16:09:17.027Z,84.80
2023-04-03T16:11:47.106Z,89.40
2023-04-03T16:14:17.120Z,85.70
2023-04-03T16:16:50.273Z,85.30
2023-04-03T16:19:22.085Z,86.60
2023-04-03T16:21:52.833Z,87.40
2023-04-03T16:24:23.054Z,85.30
2023-04-03T16:26:54.576Z,85.40
2023-04-03T16:29:24.843Z,83.90
2023-04-03T16:31:57.699Z,84.80
2023-04-03T16:34:28.942Z,83.60
2023-04-03T16:36:59.059Z,87.00
2023-04-03T16:39:29.437Z,84.30
2023-04-03T16:41:59.808Z,84.00
2023-04-03T16:44:30.179Z,86.10
2023-04-03T16:47:02.837Z,88.20
2023-04-03T16:49:34.102Z,83.70
2023-04-03T16:52:04.889Z,81.70
2023-04-03T16:54:36.306Z,81.00
2023-04-03T16:57:06.646Z,83.00
2023-04-03T16:59:36.834Z,81.30
2023-04-03T17:02:10.054Z,82.00
2023-04-03T17:04:42.505Z,82.60
2023-04-03T17:07:12.973Z,83.80
2023-04-03T17:09:43.247Z,84.70
2023-04-03T17:12:13.817Z,84.90
2023-04-03T17:14:44.341Z,85.20
2023-04-03T17:17:17.314Z,86.20
2023-04-03T17:19:48.338Z,86.30
2023-04-03T17:22:18.888Z,85.80
2023-04-03T17:24:48.834Z,85.50
2023-04-03T17:27:19.180Z,85.70
2023-04-03T17:29:49.168Z,85.60
2023-04-03T17:32:22.040Z,85.70
2023-04-03T17:34:52.518Z,86.50
2023-04-03T17:37:22.830Z,86.70
2023-04-03T17:39:52.859Z,88.40
2023-04-03T17:42:23.248Z,88.00
2023-04-03T17:44:53.220Z,88.40
2023-04-03T17:47:26.394Z,90.80
2023-04-03T17:49:56.533Z,88.40
2023-04-03T17:52:29.036Z,91.10
2023-04-03T17:54:59.672Z,89.40
2023-04-03T17:57:31.811Z,90.10
2023-04-03T18:00:02.212Z,90.00
2023-04-03T18:02:58.196Z,90.60
2023-04-03T18:05:33.384Z,90.40
2023-04-03T18:08:04.608Z,91.30
2023-04-03T18:10:37.900Z,91.20
2023-04-03T18:13:09.884Z,93.80
2023-04-03T18:15:46.656Z,91.50
2023-04-03T18:18:19.405Z,92.50
2023-04-03T18:20:49.782Z,91.40
2023-04-03T18:23:26.331Z,92.70
2023-04-03T18:25:57.663Z,92.00
2023-04-03T18:28:32.325Z,92.30
2023-04-03T18:31:05.641Z,93.10
2023-04-03T18:33:39.697Z,92.10
2023-04-03T18:36:09.979Z,92.00
2023-04-03T18:38:41.019Z,92.70
2023-04-03T18:41:13.789Z,92.30
2023-04-03T18:43:45.586Z,93.00
2023-04-03T18:46:16.161Z,92.50
2023-04-03T18:48:49.370Z,92.40
2023-04-03T18:51:19.530Z,92.30
2023-04-03T18:53:52.887Z,92.30
2023-04-03T18:56:23.124Z,93.10
2023-04-03T18:58:53.640Z,93.60
2023-04-03T19:01:25.267Z,94.30
2023-04-03T19:03:59.204Z,93.50
2023-04-03T19:06:32.997Z,94.20
2023-04-03T19:09:03.259Z,94.40
2023-04-03T19:11:36.338Z,93.70
2023-04-03T19:14:16.802Z,93.70
2023-04-03T19:16:51.212Z,93.20
2023-04-03T19:19:24.004Z,93.20
2023-04-03T19:21:54.024Z,92.30
2023-04-03T19:24:25.915Z,92.40
2023-04-03T19:26:58.243Z,93.00
2023-04-03T19:29:28.805Z,93.20
2023-04-03T19:31:59.232Z,92.80
2023-04-03T19:34:34.395Z,94.10
2023-04-03T19:37:06.056Z,93.10
2023-04-03T19:39:36.770Z,93.20
2023-04-03T19:42:08.081Z,94.50
2023-04-03T19:44:39.008Z,93.70
2023-04-03T19:47:16.770Z,94.10
2023-04-03T19:49:49.406Z,93.50
2023-04-03T19:52:20.047Z,95.60
2023-04-03T19:54:51.774Z,94.20
2023-04-03T19:57:25.035Z,93.50
2023-04-03T19:59:55.158Z,93.40
2023-04-03T20:02:25.622Z,95.00
2023-04-03T20:04:58.395Z,92.90
2023-04-03T20:07:28.612Z,92.90
2023-04-03T20:09:58.543Z,93.60
2023-04-03T20:12:29.768Z,93.00
2023-04-03T20:15:04.351Z,93.40
2023-04-03T20:17:34.882Z,93.70
2023-04-03T20:20:09.834Z,94.10
2023-04-03T20:22:41.296Z,93.80
2023-04-03T20:25:17.464Z,94.40
2023-04-03T20:27:56.950Z,93.80
2023-04-03T20:30:27.179Z,93.60
2023-04-03T20:32:59.354Z,94.50
2023-04-03T20:35:32.475Z,94.60
2023-04-03T20:38:03.090Z,94.40
2023-04-03T20:40:33.447Z,96.60
2023-04-03T20:43:04.504Z,96.20
2023-04-03T20:45:35.011Z,97.80
2023-04-03T20:48:06.127Z,95.90
2023-04-03T20:50:39.082Z,97.70
2023-04-03T20:53:09.723Z,97.60
2023-04-03T20:55:39.765Z,98.90
2023-04-03T20:58:11.703Z,98.20
2023-04-03T21:00:43.822Z,97.50
2023-04-03T21:03:14.148Z,97.40
2023-04-03T21:05:47.062Z,99.90
2023-04-03T21:08:48.092Z,97.50
2023-04-03T21:11:48.120Z,99.90
2023-04-03T21:14:48.791Z,99.90
2023-04-03T21:17:18.538Z,99.90
2023-04-03T21:19:53.493Z,98.20
2023-04-03T21:22:23.590Z,99.90
2023-04-03T21:24:53.833Z,99.90
2023-04-03T21:27:23.895Z,99.90
2023-04-03T21:29:54.064Z,99.80
2023-04-03T21:32:24.136Z,99.90
2023-04-03T21:34:57.436Z,99.90
2023-04-03T21:37:27.536Z,99.90
2023-04-03T21:39:57.519Z,99.90
2023-04-03T21:42:27.833Z,99.90
2023-04-03T21:44:58.518Z,99.90
2023-04-03T21:47:29.081Z,99.90
2023-04-03T21:50:02.520Z,99.90
2023-04-03T21:52:33.077Z,99.90
2023-04-03T21:55:05.972Z,99.90
2023-04-03T21:57:37.533Z,99.90
2023-04-03T22:00:12.755Z,99.90
2023-04-03T22:02:43.546Z,99.90
2023-04-03T22:05:16.849Z,99.90
2023-04-03T22:07:48.084Z,99.90
2023-04-03T22:10:18.488Z,99.90
2023-04-03T22:12:48.678Z,99.90
2023-04-03T22:15:18.977Z,99.90
2023-04-03T22:17:49.339Z,99.90
2023-04-03T22:20:22.572Z,99.90
2023-04-03T22:22:53.510Z,99.90
2023-04-03T22:25:23.818Z,99.90
2023-04-03T22:27:54.086Z,99.90
2023-04-03T22:30:24.391Z,99.90
2023-04-03T22:32:56.004Z,99.90
2023-04-03T22:35:29.465Z,99.90
2023-04-03T22:38:02.114Z,99.90
2023-04-03T22:40:35.636Z,99.90
2023-04-03T22:43:06.621Z,99.90
2023-04-03T22:45:36.923Z,99.90
2023-04-03T22:48:08.454Z,99.90
2023-04-03T22:50:48.161Z,99.90
2023-04-03T22:53:21.993Z,99.90
2023-04-03T22:56:02.485Z,99.90
2023-04-03T22:58:33.003Z,99.90
2023-04-03T23:01:08.258Z,99.90
2023-04-03T23:03:39.555Z,99.90
2023-04-03T23:06:14.315Z,99.90
2023-04-03T23:08:45.204Z,99.90
2023-04-03T23:11:15.556Z,99.90
2023-04-03T23:13:46.881Z,99.90
2023-04-03T23:16:17.924Z,99.90
2023-04-03T23:18:50.201Z,99.90
2023-04-03T23:21:23.328Z,99.90
2023-04-03T23:23:53.802Z,99.90
2023-04-03T23:26:27.523Z,99.90
2023-04-03T23:28:57.754Z,99.90
2023-04-03T23:31:28.182Z,99.90
2023-04-03T23:33:58.721Z,99.90
2023-04-03T23:36:34.020Z,99.90
2023-04-03T23:39:05.156Z,99.90
2023-04-03T23:41:36.099Z,99.90
2023-04-03T23:44:06.631Z,99.90
2023-04-03T23:46:36.643Z,99.90
2023-04-03T23:49:06.794Z,99.90
2023-04-03T23:51:39.951Z,99.90
2023-04-03T23:54:11.958Z,99.90
2023-04-03T23:56:42.486Z,99.90
2023-04-03T23:59:12.499Z,99.90
